createdAt,value
2018-08-16T00:00:25.174Z,99367.13
2018-08-16T00:02:53.470Z,99432.62
2018-08-16T00:05:22.133Z,99425.96
2018-08-16T00:07:50.593Z,99428.80
2018-08-16T00:10:19.644Z,99427.41
2018-08-16T00:12:49.742Z,99435.08
2018-08-16T00:15:20.115Z,99423.44
2018-08-16T00:17:48.535Z,99421.01
2018-08-16T00:20:16.953Z,99421.40
2018-08-16T00:22:45.938Z,99424.88
2018-08-16T00:25:15.509Z,99417.20
2018-08-16T00:27:44.281Z,99410.11
2018-08-16T00:30:15.248Z,99425.41
2018-08-16T00:32:44.301Z,99416.88
2018-08-16T00:35:12.689Z,99423.25
2018-08-16T00:41:30.116Z,99354.93
2018-08-16T00:43:59.023Z,99419.30
2018-08-16T00:46:29.205Z,99421.10
2018-08-16T00:48:57.721Z,99421.59
2018-08-16T00:51:26.555Z,99405.61
2018-08-16T00:53:54.796Z,99424.17
2018-08-16T00:56:22.917Z,99421.61
2018-08-16T00:58:52.095Z,99421.36
2018-08-16T01:01:20.371Z,99418.55
2018-08-16T01:03:48.716Z,99417.39
2018-08-16T01:06:17.998Z,99416.63
2018-08-16T01:08:46.154Z,99410.89
2018-08-16T01:11:14.993Z,99410.38
2018-08-16T01:13:43.896Z,99404.62
2018-08-16T01:16:12.250Z,99409.73
2018-08-16T01:18:40.794Z,99398.38
2018-08-16T01:21:10.157Z,99356.47
2018-08-16T01:23:38.741Z,99399.02
2018-08-16T01:26:07.513Z,99384.94
2018-08-16T01:28:36.045Z,99380.09
2018-08-16T01:31:04.653Z,99404.09
2018-08-16T01:33:32.895Z,99387.09
2018-08-16T01:36:01.648Z,99402.30
2018-08-16T01:38:29.805Z,99407.80
2018-08-16T01:40:57.906Z,99400.14
2018-08-16T01:43:26.644Z,99401.28
2018-08-16T01:45:55.088Z,99410.34
2018-08-16T01:48:23.652Z,99402.55
2018-08-16T01:50:52.473Z,99413.77
2018-08-16T01:53:20.869Z,99411.34
2018-08-16T01:55:49.681Z,99402.78
2018-08-16T01:58:18.362Z,99397.28
2018-08-16T02:00:46.500Z,99399.08
2018-08-16T02:03:15.190Z,99396.52
2018-08-16T02:05:43.693Z,99401.25
2018-08-16T02:08:12.359Z,99391.53
2018-08-16T02:10:40.798Z,99390.64
2018-08-16T02:13:08.940Z,99388.83
2018-08-16T02:15:37.057Z,99394.17
2018-08-16T02:18:05.729Z,99377.17
2018-08-16T02:20:34.413Z,99388.93
2018-08-16T02:23:02.785Z,99386.48
2018-08-16T02:25:31.228Z,99375.39
2018-08-16T02:27:59.599Z,99427.79
2018-08-16T02:30:28.118Z,99366.30
2018-08-16T02:32:56.421Z,99382.41
2018-08-16T02:35:24.802Z,99381.13
2018-08-16T02:37:52.873Z,99385.06
2018-08-16T02:40:20.958Z,99378.67
2018-08-16T02:42:49.070Z,99381.98
2018-08-16T02:45:17.163Z,99379.03
2018-08-16T02:47:45.526Z,99376.73
2018-08-16T02:50:13.913Z,99376.73
2018-08-16T02:52:42.813Z,99376.23
2018-08-16T02:55:11.372Z,99373.55
2018-08-16T02:57:40.327Z,99374.17
2018-08-16T03:00:09.677Z,99373.48
2018-08-16T03:02:37.929Z,99367.10
2018-08-16T03:05:06.648Z,99367.10
2018-08-16T03:07:35.397Z,99359.55
2018-08-16T03:10:05.282Z,99370.38
2018-08-16T03:12:34.040Z,99367.70
2018-08-16T03:15:03.022Z,99363.61
2018-08-16T03:17:31.611Z,99362.59
2018-08-16T03:20:00.489Z,99358.23
2018-08-16T03:22:28.772Z,99356.59
2018-08-16T03:24:57.555Z,99359.25
2018-08-16T03:27:26.650Z,99356.17
2018-08-16T03:29:54.978Z,99366.77
2018-08-16T03:32:23.124Z,99365.48
2018-08-16T03:34:51.837Z,99365.48
2018-08-16T03:37:19.966Z,99358.70
2018-08-16T03:39:48.629Z,99367.73
2018-08-16T03:42:17.288Z,99360.69
2018-08-16T03:44:47.321Z,99353.05
2018-08-16T03:47:15.571Z,99307.08
2018-08-16T03:49:46.521Z,99362.66
2018-08-16T03:52:15.018Z,99360.44
2018-08-16T03:54:43.470Z,99360.16
2018-08-16T03:57:11.809Z,99362.83
2018-08-16T03:59:44.998Z,99358.59
2018-08-16T04:02:14.198Z,99361.55
2018-08-16T04:04:42.384Z,99353.05
2018-08-16T04:07:10.832Z,99363.79
2018-08-16T04:09:39.838Z,99357.02
2018-08-16T04:12:09.275Z,99367.09
2018-08-16T04:14:37.661Z,99369.34
2018-08-16T04:17:07.658Z,99368.44
2018-08-16T04:19:36.305Z,99370.97
2018-08-16T04:22:04.967Z,99367.78
2018-08-16T04:24:33.929Z,99375.94
2018-08-16T04:27:02.212Z,99374.27
2018-08-16T04:29:30.374Z,99373.03
2018-08-16T04:31:59.096Z,99374.67
2018-08-16T04:34:27.841Z,99381.17
2018-08-16T04:36:55.934Z,99373.31
2018-08-16T04:39:24.049Z,99374.83
2018-08-16T04:41:52.193Z,99356.69
2018-08-16T04:44:20.375Z,99375.73
2018-08-16T04:46:48.914Z,99372.19
2018-08-16T04:49:17.057Z,99371.81
2018-08-16T04:51:45.167Z,99371.31
2018-08-16T04:54:13.727Z,99364.98
2018-08-16T04:56:41.999Z,99330.24
2018-08-16T04:59:10.891Z,99328.34
2018-08-16T05:01:39.627Z,99353.20
2018-08-16T05:04:08.474Z,99352.81
2018-08-16T05:06:37.006Z,99367.80
2018-08-16T05:09:08.048Z,99360.14
2018-08-16T05:11:36.481Z,99356.36
2018-08-16T05:14:05.309Z,99361.08
2018-08-16T05:16:35.142Z,99363.91
2018-08-16T05:19:03.282Z,99358.20
2018-08-16T05:21:31.390Z,99360.53
2018-08-16T05:23:59.606Z,99327.72
2018-08-16T05:26:27.790Z,99355.86
2018-08-16T05:28:56.410Z,99355.38
2018-08-16T05:31:25.480Z,99354.42
2018-08-16T05:33:53.587Z,99319.17
2018-08-16T05:36:21.824Z,99326.50
2018-08-16T05:38:50.261Z,99347.72
2018-08-16T05:41:18.397Z,99351.97
2018-08-16T05:43:46.518Z,99349.30
2018-08-16T05:46:15.122Z,99257.06
2018-08-16T05:48:43.871Z,99360.42
2018-08-16T05:51:11.989Z,99365.51
2018-08-16T05:53:40.672Z,99354.94
2018-08-16T05:56:09.097Z,99340.77
2018-08-16T05:58:37.281Z,99341.30
2018-08-16T06:01:06.001Z,99336.45
2018-08-16T06:03:34.418Z,99346.77
2018-08-16T06:06:02.622Z,99342.45
2018-08-16T06:08:30.765Z,99341.55
2018-08-16T06:10:58.930Z,99343.22
2018-08-16T06:13:27.538Z,99350.73
2018-08-16T06:15:56.318Z,99346.36
2018-08-16T06:18:25.138Z,99341.62
2018-08-16T06:20:53.245Z,99343.02
2018-08-16T06:23:22.110Z,99343.61
2018-08-16T06:25:50.783Z,99344.35
2018-08-16T06:28:18.898Z,99340.98
2018-08-16T06:30:47.706Z,99338.25
2018-08-16T06:33:16.138Z,99338.99
2018-08-16T06:35:44.394Z,99335.48
2018-08-16T06:38:13.350Z,99334.27
2018-08-16T06:40:41.714Z,99332.02
2018-08-16T06:43:09.928Z,99312.31
2018-08-16T06:45:38.921Z,99338.72
2018-08-16T06:48:07.142Z,99295.34
2018-08-16T06:50:35.585Z,99325.30
2018-08-16T06:53:04.881Z,99327.55
2018-08-16T06:55:33.201Z,99316.92
2018-08-16T06:58:01.396Z,99304.09
2018-08-16T07:00:30.085Z,99317.92
2018-08-16T07:02:58.181Z,99310.98
2018-08-16T07:05:26.413Z,99307.27
2018-08-16T07:07:55.240Z,99306.78
2018-08-16T07:10:23.355Z,99310.42
2018-08-16T07:12:51.537Z,99314.30
2018-08-16T07:15:20.043Z,99304.14
2018-08-16T07:17:48.540Z,99308.41
2018-08-16T07:20:17.234Z,99289.41
2018-08-16T07:22:45.633Z,99303.80
2018-08-16T07:25:13.744Z,99298.66
2018-08-16T07:27:41.941Z,99293.79
2018-08-16T07:30:10.616Z,99283.54
2018-08-16T07:32:39.424Z,99287.30
2018-08-16T07:35:08.281Z,99283.91
2018-08-16T07:37:37.331Z,99269.13
2018-08-16T07:40:06.118Z,99260.03
2018-08-16T07:42:34.746Z,99280.05
2018-08-16T07:45:03.009Z,99278.41
2018-08-16T07:47:31.137Z,99284.59
2018-08-16T07:49:59.304Z,99281.62
2018-08-16T07:52:27.469Z,99263.80
2018-08-16T07:54:55.562Z,99288.84
2018-08-16T07:57:23.979Z,99270.05
2018-08-16T07:59:52.214Z,99276.63
2018-08-16T08:02:20.346Z,99280.23
2018-08-16T08:04:48.498Z,99279.05
2018-08-16T08:07:16.689Z,99277.55
2018-08-16T08:09:44.839Z,99275.18
2018-08-16T08:12:13.710Z,99281.27
2018-08-16T08:14:41.822Z,99283.25
2018-08-16T08:17:10.261Z,99272.88
2018-08-16T08:19:38.438Z,99272.65
2018-08-16T08:22:07.128Z,99274.81
2018-08-16T08:24:35.385Z,99274.50
2018-08-16T08:27:03.858Z,99270.60
2018-08-16T08:29:32.347Z,99267.91
2018-08-16T08:32:00.683Z,99267.38
2018-08-16T08:34:28.962Z,99271.11
2018-08-16T08:37:08.343Z,99272.56
2018-08-16T08:39:36.438Z,99258.45
2018-08-16T08:42:04.841Z,99275.84
2018-08-16T08:44:33.387Z,99263.47
2018-08-16T08:47:01.532Z,99243.88
2018-08-16T08:49:30.197Z,99256.36
2018-08-16T08:51:58.952Z,99248.41
2018-08-16T08:54:42.342Z,99203.25
2018-08-16T08:57:22.132Z,99239.70
2018-08-16T08:59:50.490Z,99234.14
2018-08-16T09:02:19.168Z,99235.31
2018-08-16T09:04:47.625Z,99237.95
2018-08-16T09:07:17.077Z,99239.84
2018-08-16T09:11:02.057Z,99229.05
2018-08-16T09:13:41.186Z,99245.22
2018-08-16T09:16:12.445Z,99239.84
2018-08-16T09:18:40.888Z,99235.11
2018-08-16T09:21:10.174Z,99234.71
2018-08-16T09:23:38.616Z,99233.45
2018-08-16T09:26:12.369Z,99234.72
2018-08-16T09:28:40.993Z,99226.20
2018-08-16T09:31:20.501Z,99215.78
2018-08-16T09:33:59.307Z,99225.34
2018-08-16T09:36:28.098Z,99218.31
2018-08-16T09:38:57.305Z,99215.30
2018-08-16T09:41:25.711Z,99217.19
2018-08-16T09:43:54.177Z,99209.13
2018-08-16T09:46:59.221Z,99205.45
2018-08-16T09:49:28.409Z,99203.78
2018-08-16T09:51:57.294Z,99198.03
2018-08-16T09:54:26.307Z,99194.54
2018-08-16T09:56:55.993Z,99171.95
2018-08-16T09:59:24.429Z,99182.30
2018-08-16T10:01:52.907Z,99179.48
2018-08-16T10:04:22.326Z,99179.63
2018-08-16T10:06:50.746Z,99178.83
2018-08-16T10:09:22.150Z,99176.91
2018-08-16T10:11:50.856Z,99169.78
2018-08-16T10:14:19.566Z,99171.19
2018-08-16T10:16:48.031Z,99141.42
2018-08-16T10:19:16.661Z,99159.16
2018-08-16T10:21:44.863Z,99137.20
2018-08-16T10:24:13.200Z,99154.46
2018-08-16T10:26:42.341Z,99147.55
2018-08-16T10:29:11.253Z,99143.78
2018-08-16T10:31:39.968Z,99133.05
2018-08-16T10:34:08.629Z,99128.36
2018-08-16T10:36:36.833Z,99133.39
2018-08-16T10:39:08.242Z,99114.03
2018-08-16T10:41:36.845Z,99119.45
2018-08-16T10:44:05.199Z,99133.97
2018-08-16T10:46:33.480Z,99118.56
2018-08-16T10:49:02.028Z,99118.14
2018-08-16T10:51:30.499Z,99124.69
2018-08-16T10:53:59.232Z,99122.00
2018-08-16T10:56:27.700Z,99101.73
2018-08-16T10:58:55.855Z,99108.23
2018-08-16T11:01:24.073Z,99100.34
2018-08-16T11:03:52.836Z,99099.27
2018-08-16T11:06:21.044Z,99100.84
2018-08-16T11:08:49.699Z,99085.73
2018-08-16T11:11:18.058Z,99097.03
2018-08-16T11:13:46.334Z,99106.86
2018-08-16T11:16:15.009Z,99093.50
2018-08-16T11:18:44.105Z,99093.98
2018-08-16T11:21:12.370Z,99071.48
2018-08-16T11:23:40.529Z,99056.95
2018-08-16T11:26:09.396Z,99079.34
2018-08-16T11:28:38.394Z,99075.89
2018-08-16T11:31:07.163Z,99072.63
2018-08-16T11:33:36.983Z,99076.60
2018-08-16T11:36:06.702Z,99075.59
2018-08-16T11:38:37.629Z,99074.21
2018-08-16T11:41:06.203Z,99061.78
2018-08-16T11:43:34.336Z,99058.94
2018-08-16T11:46:02.885Z,99056.17
2018-08-16T11:48:31.545Z,99013.09
2018-08-16T11:50:59.763Z,99055.69
2018-08-16T11:53:28.436Z,99058.31
2018-08-16T11:55:56.687Z,99036.09
2018-08-16T11:58:24.877Z,99039.58
2018-08-16T12:00:53.475Z,99039.30
2018-08-16T12:03:21.833Z,99026.08
2018-08-16T12:05:50.700Z,99041.02
2018-08-16T12:08:20.590Z,99033.16
2018-08-16T12:10:50.151Z,99030.25
2018-08-16T12:13:18.874Z,99035.27
2018-08-16T12:15:47.471Z,99028.41
2018-08-16T12:18:16.311Z,99017.66
2018-08-16T12:20:45.410Z,99012.16
2018-08-16T12:23:13.654Z,99014.73
2018-08-16T12:25:41.986Z,99001.00
2018-08-16T12:28:11.160Z,98999.55
2018-08-16T12:30:40.031Z,99013.76
2018-08-16T12:33:09.194Z,99004.56
2018-08-16T12:35:38.329Z,99004.34
2018-08-16T12:38:06.536Z,98993.95
2018-08-16T12:40:36.455Z,98992.52
2018-08-16T12:43:07.601Z,98999.66
2018-08-16T12:45:37.847Z,98976.42
2018-08-16T12:48:06.334Z,98987.91
2018-08-16T12:50:34.573Z,98978.83
2018-08-16T12:53:04.292Z,98984.55
2018-08-16T12:55:33.350Z,98960.80
2018-08-16T12:58:02.699Z,98980.66
2018-08-16T13:00:32.035Z,98967.90
2018-08-16T13:03:02.127Z,98968.45
2018-08-16T13:05:31.360Z,98965.66
2018-08-16T13:07:59.703Z,98958.27
2018-08-16T13:10:28.382Z,98955.11
2018-08-16T13:12:56.989Z,98952.74
2018-08-16T13:15:26.249Z,98941.73
2018-08-16T13:17:54.399Z,98942.48
2018-08-16T13:20:23.390Z,98895.84
2018-08-16T13:22:51.570Z,98936.39
2018-08-16T13:25:19.771Z,98940.44
2018-08-16T13:27:50.610Z,98935.34
2018-08-16T13:30:20.599Z,98940.06
2018-08-16T13:32:49.388Z,98938.31
2018-08-16T13:35:18.415Z,98928.20
2018-08-16T13:37:46.740Z,98922.53
2018-08-16T13:40:16.766Z,98925.95
2018-08-16T13:42:45.446Z,98924.72
2018-08-16T13:45:15.547Z,98921.39
2018-08-16T13:47:44.418Z,98903.53
2018-08-16T13:50:13.726Z,98916.31
2018-08-16T13:52:42.491Z,98915.13
2018-08-16T13:55:10.826Z,98922.30
2018-08-16T13:57:39.331Z,98918.23
2018-08-16T14:00:09.782Z,98913.31
2018-08-16T14:02:38.483Z,98916.22
2018-08-16T14:05:07.811Z,98911.34
2018-08-16T14:07:36.684Z,98915.03
2018-08-16T14:10:06.910Z,98905.27
2018-08-16T14:12:35.621Z,98898.88
2018-08-16T14:15:05.002Z,98897.48
2018-08-16T14:17:34.747Z,98891.92
2018-08-16T14:20:05.904Z,98889.03
2018-08-16T14:22:35.149Z,98870.90
2018-08-16T14:25:05.113Z,98891.06
2018-08-16T14:27:33.319Z,98865.13
2018-08-16T14:30:13.695Z,98889.73
2018-08-16T14:32:42.417Z,98894.03
2018-08-16T14:35:11.519Z,98898.72
2018-08-16T14:37:40.327Z,98882.41
2018-08-16T14:40:11.097Z,98851.23
2018-08-16T14:42:39.953Z,98882.02
2018-08-16T14:45:08.245Z,98879.23
2018-08-16T14:47:36.811Z,98871.36
2018-08-16T14:50:06.326Z,98817.72
2018-08-16T14:52:37.354Z,98865.84
2018-08-16T14:55:09.469Z,98865.05
2018-08-16T14:57:51.906Z,98849.16
2018-08-16T15:00:24.700Z,98865.55
2018-08-16T15:02:55.300Z,98862.56
2018-08-16T15:05:27.136Z,98864.11
2018-08-16T15:07:59.554Z,98852.73
2018-08-16T15:10:32.736Z,98865.05
2018-08-16T15:13:08.170Z,98809.52
2018-08-16T15:15:36.552Z,98855.36
2018-08-16T15:18:11.635Z,98854.40
2018-08-16T15:20:42.660Z,98850.77
2018-08-16T15:23:14.690Z,98853.06
2018-08-16T15:25:44.113Z,98849.86
2018-08-16T15:28:12.933Z,98847.67
2018-08-16T15:30:42.227Z,98840.16
2018-08-16T15:33:11.141Z,98830.05
2018-08-16T15:35:39.635Z,98840.35
2018-08-16T15:38:08.032Z,98837.98
2018-08-16T15:40:38.414Z,98837.53
2018-08-16T15:43:08.978Z,98836.41
2018-08-16T15:45:38.098Z,98810.74
2018-08-16T15:48:14.936Z,98834.06
2018-08-16T15:50:44.891Z,98823.73
2018-08-16T15:53:13.353Z,98792.05
2018-08-16T15:55:42.575Z,98830.75
2018-08-16T15:58:11.725Z,98835.36
2018-08-16T16:00:44.401Z,98828.17
2018-08-16T16:03:15.852Z,98829.09
2018-08-16T16:05:44.897Z,98831.34
2018-08-16T16:08:13.472Z,98834.06
2018-08-16T16:10:43.157Z,98827.16
2018-08-16T16:13:11.889Z,98829.98
2018-08-16T16:15:40.057Z,98804.31
2018-08-16T16:18:13.333Z,98825.76
2018-08-16T16:20:41.783Z,98820.89
2018-08-16T16:23:11.521Z,98815.23
2018-08-16T16:25:40.044Z,98807.20
2018-08-16T16:28:09.611Z,98810.84
2018-08-16T16:30:41.237Z,98815.39
2018-08-16T16:33:11.876Z,98809.09
2018-08-16T16:35:43.742Z,98804.04
2018-08-16T16:38:15.502Z,98806.42
2018-08-16T16:40:46.500Z,98800.94
2018-08-16T16:43:17.958Z,98800.43
2018-08-16T16:45:50.888Z,98704.36
2018-08-16T16:48:20.266Z,98791.80
2018-08-16T16:50:50.813Z,98792.08
2018-08-16T16:53:20.423Z,98792.46
2018-08-16T16:55:53.331Z,98793.49
2018-08-16T16:58:22.433Z,98793.91
2018-08-16T17:00:56.821Z,98780.22
2018-08-16T17:03:30.042Z,98793.39
2018-08-16T17:06:04.819Z,98791.56
2018-08-16T17:08:33.464Z,98795.89
2018-08-16T17:11:03.377Z,98795.66
2018-08-16T17:13:32.363Z,98793.00
2018-08-16T17:16:02.208Z,98793.96
2018-08-16T17:18:33.098Z,98756.75
2018-08-16T17:21:02.338Z,98791.39
2018-08-16T17:23:33.439Z,98796.56
2018-08-16T17:26:06.945Z,98785.88
2018-08-16T17:28:38.078Z,98794.02
2018-08-16T17:31:11.063Z,98790.89
2018-08-16T17:33:41.545Z,98784.96
2018-08-16T17:36:10.851Z,98730.02
2018-08-16T17:38:39.802Z,98791.18
2018-08-16T17:41:08.308Z,98796.50
2018-08-16T17:43:37.936Z,98800.03
2018-08-16T17:46:06.562Z,98793.20
2018-08-16T17:48:40.318Z,98798.70
2018-08-16T17:51:11.306Z,98730.13
2018-08-16T17:53:44.317Z,98798.77
2018-08-16T17:56:14.767Z,98799.47
2018-08-16T17:58:44.665Z,98792.88
2018-08-16T18:01:15.671Z,98794.34
2018-08-16T18:03:46.061Z,98792.09
2018-08-16T18:06:14.822Z,98789.08
2018-08-16T18:08:45.682Z,98766.52
2018-08-16T18:11:14.658Z,98795.32
2018-08-16T18:13:44.245Z,98792.92
2018-08-16T18:16:18.666Z,98786.65
2018-08-16T18:18:53.119Z,98791.72
2018-08-16T18:21:21.865Z,98794.86
2018-08-16T18:23:50.749Z,98794.62
2018-08-16T18:26:19.419Z,98770.06
2018-08-16T18:28:47.956Z,98795.75
2018-08-16T18:31:16.863Z,98788.18
2018-08-16T18:33:45.076Z,98787.38
2018-08-16T18:36:13.963Z,98795.08
2018-08-16T18:38:42.957Z,98800.61
2018-08-16T18:41:13.373Z,98800.33
2018-08-16T18:43:41.797Z,98799.09
2018-08-16T18:46:11.080Z,98801.53
2018-08-16T18:48:41.496Z,98801.80
2018-08-16T18:51:11.177Z,98802.21
2018-08-16T18:53:39.957Z,98808.38
2018-08-16T18:56:08.944Z,98806.81
2018-08-16T18:58:38.013Z,98808.92
2018-08-16T19:01:07.203Z,98808.45
2018-08-16T19:03:38.253Z,98811.14
2018-08-16T19:06:07.508Z,98809.41
2018-08-16T19:08:36.546Z,98819.21
2018-08-16T19:11:06.034Z,98811.09
2018-08-16T19:13:35.933Z,98825.86
2018-08-16T19:16:10.930Z,98818.32
2018-08-16T19:18:47.949Z,98815.55
2018-08-16T19:21:19.424Z,98821.85
2018-08-16T19:23:52.558Z,98827.13
2018-08-16T19:26:22.770Z,98819.30
2018-08-16T19:28:51.699Z,98816.55
2018-08-16T19:31:21.345Z,98819.70
2018-08-16T19:33:50.115Z,98810.78
2018-08-16T19:36:18.708Z,98814.76
2018-08-16T19:38:48.832Z,98815.73
2018-08-16T19:41:18.147Z,98817.77
2018-08-16T19:43:46.779Z,98816.24
2018-08-16T19:46:16.010Z,98816.30
2018-08-16T19:48:45.384Z,98777.95
2018-08-16T19:51:14.019Z,98822.58
2018-08-16T19:53:42.925Z,98820.92
2018-08-16T19:56:14.594Z,98825.66
2018-08-16T19:58:43.283Z,98823.61
2018-08-16T20:01:13.262Z,98823.48
2018-08-16T20:03:43.785Z,98828.48
2018-08-16T20:06:13.224Z,98826.87
2018-08-16T20:08:41.984Z,98818.34
2018-08-16T20:11:10.468Z,98813.93
2018-08-16T20:13:39.195Z,98815.38
2018-08-16T20:16:13.801Z,98815.47
2018-08-16T20:18:41.958Z,98800.28
2018-08-16T20:21:10.366Z,98764.94
2018-08-16T20:23:38.999Z,98810.02
2018-08-16T20:26:07.986Z,98814.47
2018-08-16T20:28:37.012Z,98809.02
2018-08-16T20:31:06.826Z,98811.01
2018-08-16T20:33:35.128Z,98782.88
2018-08-16T20:36:04.029Z,98806.77
2018-08-16T20:38:32.700Z,98816.26
2018-08-16T20:41:01.029Z,98811.92
2018-08-16T20:43:29.241Z,98738.38
2018-08-16T20:45:58.096Z,98813.69
2018-08-16T20:48:26.376Z,98807.84
2018-08-16T20:50:54.501Z,98809.61
2018-08-16T20:53:23.896Z,98807.00
2018-08-16T20:55:52.161Z,98811.61
2018-08-16T20:58:22.597Z,98809.48
2018-08-16T21:00:51.827Z,98811.14
2018-08-16T21:03:20.675Z,98687.96
2018-08-16T21:05:49.613Z,98783.13
2018-08-16T21:08:18.401Z,98766.27
2018-08-16T21:10:46.786Z,98815.25
2018-08-16T21:13:15.345Z,98811.63
2018-08-16T21:15:45.119Z,98812.63
2018-08-16T21:18:16.501Z,98816.45
2018-08-16T21:20:46.295Z,98811.76
2018-08-16T21:23:18.993Z,98814.86
2018-08-16T21:25:51.210Z,98814.42
2018-08-16T21:28:23.072Z,98811.98
2018-08-16T21:30:54.313Z,98819.38
2018-08-16T21:33:23.170Z,98815.82
2018-08-16T21:35:51.431Z,98812.92
2018-08-16T21:38:19.562Z,98813.98
2018-08-16T21:40:48.125Z,98812.69
2018-08-16T21:43:16.482Z,98813.29
2018-08-16T21:45:45.362Z,98816.38
2018-08-16T21:48:13.832Z,98826.23
2018-08-16T21:50:42.218Z,98817.91
2018-08-16T21:53:10.706Z,98814.82
2018-08-16T21:55:39.546Z,98818.05
2018-08-16T21:58:08.295Z,98803.35
2018-08-16T22:00:48.075Z,98791.59
2018-08-16T22:03:19.664Z,98833.18
2018-08-16T22:06:02.534Z,98823.55
2018-08-16T22:08:41.242Z,98834.95
2018-08-16T22:11:09.704Z,98831.93
2018-08-16T22:13:38.791Z,98830.81
2018-08-16T22:16:07.594Z,98755.83
2018-08-16T22:18:36.598Z,98831.21
2018-08-16T22:21:07.613Z,98830.45
2018-08-16T22:23:35.756Z,98834.63
2018-08-16T22:26:04.868Z,98834.24
2018-08-16T22:28:33.689Z,98828.48
2018-08-16T22:31:01.976Z,98825.76
2018-08-16T22:33:30.609Z,98821.69
2018-08-16T22:36:00.077Z,98823.49
2018-08-16T22:38:29.108Z,98832.00
2018-08-16T22:40:57.397Z,98822.09
2018-08-16T22:43:25.639Z,98824.74
2018-08-16T22:45:55.258Z,98826.24
2018-08-16T22:48:24.882Z,98822.20
2018-08-16T22:50:53.820Z,98828.55
2018-08-16T22:53:23.282Z,98824.75
2018-08-16T22:55:52.161Z,98818.98
2018-08-16T22:58:20.400Z,98820.78
2018-08-16T23:00:48.655Z,98792.32
2018-08-16T23:03:16.956Z,98828.16
2018-08-16T23:05:45.173Z,98817.92
2018-08-16T23:08:13.260Z,98819.04
2018-08-16T23:10:41.382Z,98817.53
2018-08-16T23:13:09.733Z,98766.37
2018-08-16T23:15:38.837Z,98824.63
2018-08-16T23:18:07.172Z,98821.77
2018-08-16T23:20:35.400Z,98818.01
2018-08-16T23:23:03.511Z,98815.54
2018-08-16T23:25:31.678Z,98813.36
2018-08-16T23:27:59.922Z,98800.48
2018-08-16T23:30:28.381Z,98786.98
2018-08-16T23:32:56.757Z,98817.78
2018-08-16T23:35:25.316Z,98821.18
2018-08-16T23:37:54.060Z,98800.58
2018-08-16T23:40:22.182Z,98820.05
2018-08-16T23:42:50.735Z,98816.63
2018-08-16T23:45:19.692Z,98812.39
2018-08-16T23:47:58.634Z,98813.14
2018-08-16T23:50:27.407Z,98798.94
2018-08-16T23:52:55.654Z,98815.77
2018-08-16T23:55:23.889Z,98809.70
2018-08-16T23:57:52.487Z,98801.20
